EET,Max TemperatureF,Mean TemperatureF,Min TemperatureF,Max Dew PointF,MeanDew PointF,Min DewpointF,Max Humidity, Mean Humidity, Min Humidity, Max Sea Level PressureIn, Mean Sea Level PressureIn, Min Sea Level PressureIn, Max VisibilityMiles, Mean VisibilityMiles, Min VisibilityMiles, Max Wind SpeedMPH, Mean Wind SpeedMPH, Max Gust SpeedMPH,PrecipitationIn, CloudCover, Events, WindDirDegrees
2012-11-1,83,72,60,72,67,59,100,86,60,29.99,29.96,29.89,6,3,1,9,2,,0.00,,,71
2012-11-2,84,74,65,73,68,55,95,81,58,29.96,29.93,29.89,6,4,2,10,3,,0.00,3,,70
2012-11-3,82,75,68,75,70,66,94,84,73,29.98,29.93,29.92,6,6,6,16,4,,0.00,3,,49
2012-11-4,86,79,72,72,70,68,94,79,55,30.01,29.99,29.95,6,6,6,12,7,,0.00,3,,51
2012-11-5,80,72,64,71,69,64,94,82,69,30.04,30.00,29.98,6,6,6,10,4,,0.00,5,,31
2012-11-6,80,76,71,70,68,66,88,76,59,30.07,30.03,29.98,6,6,6,12,8,,0.00,2,,358
2012-11-7,81,74,68,68,66,64,94,75,53,30.09,30.05,30.03,6,6,6,9,4,,0.00,2,,1
2012-11-8,80,71,62,70,66,61,100,81,59,30.04,29.94,29.86,6,6,4,13,5,,0.00,3,,279
2012-11-9,75,72,68,63,60,52,83,67,50,29.95,29.89,29.83,6,6,6,18,13,,0.00,3,,289
2012-11-10,79,73,67,64,59,55,88,63,50,30.01,29.97,29.92,6,6,6,17,11,,0.00,3,,288
2012-11-11,75,72,68,64,55,48,88,56,41,30.07,30.03,30.01,6,6,6,17,14,,0.02,3,,310
2012-11-12,75,71,67,59,55,52,73,56,37,30.09,30.07,30.04,6,6,6,16,13,,0.00,3,,331
2012-11-13,76,71,66,59,58,55,73,62,42,30.09,30.06,30.04,6,6,6,9,7,,0.00,4,,353
2012-11-14,75,65,55,61,58,54,94,76,50,30.10,30.06,30.04,6,6,6,8,2,,0.00,3,,5
2012-11-15,78,68,58,61,59,55,100,75,39,30.09,30.05,30.01,6,6,4,12,3,,0.00,1,,74
2012-11-16,80,70,59,63,61,57,94,76,42,30.04,29.97,29.92,6,5,4,7,3,,0.00,,,64
2012-11-17,79,68,56,63,58,54,94,74,40,29.93,29.89,29.83,6,4,4,12,2,,0.00,2,,323
2012-11-18,77,66,55,61,58,54,100,75,47,30.01,29.93,29.89,6,4,4,12,3,,0.00,,,14
2012-11-19,77,68,58,64,60,55,94,79,57,30.07,30.03,29.98,6,6,4,8,2,,0.00,2,,274
2012-11-20,78,68,59,63,60,55,100,77,38,30.07,30.03,29.98,6,4,2,6,1,,0.00,,,59
2012-11-21,76,66,56,63,60,55,94,80,47,30.04,29.98,29.92,6,5,4,5,2,,0.00,1,,97
2012-11-22,76,66,55,64,58,53,94,80,36,29.95,29.93,29.89,6,5,1,14,3,,0.08,2,Rain,294
2012-11-23,73,68,64,63,60,57,88,74,65,30.09,30.00,29.92,6,6,6,14,9,,0.00,3,,335
2012-11-24,69,64,60,61,59,57,88,81,66,30.09,30.05,30.03,6,6,6,12,4,,0.02,3,Rain,323
2012-11-25,72,64,55,61,57,54,94,76,53,30.06,30.03,30.01,6,6,4,13,6,,0.00,3,Rain,309
2012-11-26,73,64,55,59,56,54,94,74,46,30.11,30.07,30.04,6,6,6,12,6,,0.00,3,,276
2012-11-27,72,65,58,57,55,52,82,69,41,30.13,30.08,30.06,6,6,6,7,4,,0.00,3,,24
2012-11-28,74,67,60,61,57,54,88,75,60,30.16,30.11,30.09,6,6,6,9,2,,0.00,3,,50
2012-11-29,76,64,53,61,57,41,94,77,31,30.12,30.07,30.01,6,6,4,8,2,,0.00,3,,57
2012-11-30,76,65,54,59,56,52,100,76,43,30.06,30.02,29.98,6,3,1,9,3,,0.00,,,116